Catàleg de serveis del Meteocat

Dades de l'estació automàtica Aitona

?
?
Resum diari 22:30 TU
Dades diàries de l'estació meteorològica
Temperatura mitjana 9.1 °C
Temperatura màxima 12.2 °C 13:54 TU
Temperatura mínima 6.0 °C 19:53 TU
Humitat relativa mitjana 93%
Precipitació acumulada 3.2 mm
Ratxa màxima del vent (2 m) 19.8 km/h - 259º 15:53 TU
Irradiació solar global 2.8 MJ/m2

El tram horari està expressat en Temps Universal (TU). Cal sumar una hora en horari d'hivern i dues en horari d'estiu per passar a l'hora oficial.

Aitona

Metadades estació meteorol´gica
Municipi Aitona
Comarca Segrià
Altitud 97 m
Data alta 12.03.1998
Estat actual Operativa
Dades de període
Període
TU
TM
°C
TX
°C
TN
°C
HRM
%
PPT
mm
VVM (2 m)
km/h
DVM (2 m)
graus
VVX (2 m)
km/h
RS
W/m2
00:00 - 00:30 7.9 8.1 7.7 94 0.0 0.7 224 2.9 0
00:30 - 01:00 8.4 8.6 7.9 94 0.0 1.1 227 3.2 0
01:00 - 01:30 8.6 8.8 8.5 94 0.0 0.0 228 1.4 0
01:30 - 02:00 8.6 8.8 8.4 94 0.0 0.0 181 1.1 0
02:00 - 02:30 8.4 8.6 8.1 95 0.0 0.4 59 1.8 0
02:30 - 03:00 8.3 8.4 8.1 95 0.0 1.1 50 4.3 0
03:00 - 03:30 7.7 8.3 7.2 96 0.0 0.4 314 1.4 0
03:30 - 04:00 7.8 8.1 7.4 96 0.0 0.0 211 1.8 0
04:00 - 04:30 8.1 8.2 8.0 97 0.0 0.0 0 0.0 0
04:30 - 05:00 8.3 8.4 8.1 97 0.0 0.7 31 4.0 0
05:00 - 05:30 8.5 8.7 8.3 97 0.0 1.4 40 4.3 0
05:30 - 06:00 8.6 8.7 8.5 96 0.0 0.7 55 3.6 0
06:00 - 06:30 8.6 8.7 8.5 96 0.1 1.4 38 4.0 0
06:30 - 07:00 8.7 8.8 8.7 96 0.0 0.7 69 3.2 0
07:00 - 07:30 8.8 8.8 8.8 96 0.1 1.1 48 3.2 9
07:30 - 08:00 8.9 9.1 8.8 96 0.0 2.2 39 4.0 37
08:00 - 08:30 9.2 9.4 9.1 96 0.0 3.2 40 7.2 46
08:30 - 09:00 9.5 9.6 9.3 94 0.0 2.9 40 5.8 54
09:00 - 09:30 9.9 10.0 9.6 93 0.0 2.5 358 5.0 43
09:30 - 10:00 10.1 10.2 10.0 91 0.4 2.2 355 4.7 38
10:00 - 10:30 10.0 10.1 10.0 93 0.0 2.2 51 5.8 62
10:30 - 11:00 10.4 10.7 10.2 93 0.2 2.2 16 4.3 133
11:00 - 11:30 11.0 11.3 10.8 91 0.0 3.6 31 8.3 119
11:30 - 12:00 11.5 11.8 11.3 87 0.0 5.0 55 12.6 194
12:00 - 12:30 11.8 11.9 11.6 84 0.0 5.4 43 11.2 132
12:30 - 13:00 11.6 11.6 11.5 83 0.0 7.6 27 13.7 111
13:00 - 13:30 11.9 12.1 11.7 81 0.0 7.6 28 15.8 199
13:30 - 14:00 12.1 12.2 12.0 79 0.0 7.2 27 14.8 168
14:00 - 14:30 12.2 12.2 12.1 80 0.0 7.2 27 14.8 94
14:30 - 15:00 12.1 12.2 12.0 82 0.0 6.5 34 13.0 83
15:00 - 15:30 12.1 12.2 11.9 82 0.0 4.0 46 7.9 63
15:30 - 16:00 11.7 11.9 11.6 84 0.2 3.6 351 19.8 6
16:00 - 16:30 10.7 11.6 10.5 91 2.0 4.0 346 13.0 7
16:30 - 17:00 9.9 10.4 9.3 94 0.0 0.7 62 2.9 0
17:00 - 17:30 9.0 9.3 8.3 96 0.0 0.7 243 2.5 0
17:30 - 18:00 8.2 8.4 8.0 96 0.0 1.1 227 2.9 0
18:00 - 18:30 8.2 8.4 8.1 97 0.0 1.4 226 3.6 0
18:30 - 19:00 7.6 8.0 7.1 97 0.0 0.4 252 2.2 0
19:00 - 19:30 7.1 7.7 6.5 97 0.0 1.1 280 4.0 0
19:30 - 20:00 6.4 7.4 6.0 97 0.0 1.1 56 3.6 0
20:00 - 20:30 6.4 6.8 6.1 98 0.0 1.1 14 4.7 0
20:30 - 21:00 7.0 7.2 6.8 98 0.0 1.1 26 4.7 0
21:00 - 21:30 6.4 6.7 6.1 98 0.2 0.0 63 1.8 0
21:30 - 22:00 6.7 6.9 6.5 98 0.0 0.0 78 1.4 0
22:00 - 22:30 7.0 7.1 6.9 98 0.0 0.4 37 2.5 0
22:30 - 23:00 7.1 7.4 6.6 98 0.0 0.4 15 2.9 0

Les dades en taronja només han passat un control de qualitat automàtic. Resta pendent la seva validació definitiva.